Time;durP1;ratioP1;P1;durP2;ratioP2;P2;SDS_P1;SDS_P2;PMS_P1;PMS_P2;Temp;Humidity;BMP_temperature;BMP_pressure;BME280_temperature;BME280_humidity;BME280_pressure;Samples;Min_cycle;Max_cycle;Signal;HPM_P1;HPM_P2
2023/09/22 00:01:46;;;;;;;6.10;0.70;;;;;;;16.42;75.00;99201.09;5049475;28;20440;-79
2023/09/22 00:04:12;;;;;;;5.53;0.83;;;;;;;16.42;75.14;99198.44;5049134;28;20314;-83
2023/09/22 00:06:37;;;;;;;4.68;0.90;;;;;;;16.42;75.00;99203.75;5049578;28;20488;-77
2023/09/22 00:09:05;;;;;;;6.10;0.77;;;;;;;16.41;74.91;99198.47;5049531;28;20513;-77
2023/09/22 00:11:31;;;;;;;4.78;0.60;;;;;;;16.41;75.19;99201.13;5049285;28;20438;-83
2023/09/22 00:13:56;;;;;;;6.40;0.77;;;;;;;16.39;75.32;99197.69;5063209;28;20028;-79
2023/09/22 00:16:21;;;;;;;5.97;0.65;;;;;;;16.36;74.94;99191.59;5068866;28;20092;-83
2023/09/22 00:18:47;;;;;;;7.10;0.70;;;;;;;16.38;75.09;99194.16;5069064;28;20107;-78
2023/09/22 00:21:12;;;;;;;8.23;0.80;;;;;;;16.34;74.84;99198.75;5069015;28;20024;-83
2023/09/22 00:23:38;;;;;;;9.10;0.70;;;;;;;16.32;75.14;99195.31;5069438;28;20283;-79
2023/09/22 00:26:03;;;;;;;6.67;0.80;;;;;;;16.28;75.07;99193.75;5056818;28;20495;-78
2023/09/22 00:28:28;;;;;;;7.72;0.75;;;;;;;16.27;75.18;99196.44;5049251;28;20045;-78
2023/09/22 00:30:54;;;;;;;9.30;0.67;;;;;;;16.28;75.23;99198.16;5049191;28;20127;-82
2023/09/22 00:33:19;;;;;;;5.73;0.97;;;;;;;16.28;74.93;99201.72;5031037;28;20032;-79
2023/09/22 00:35:44;;;;;;;7.63;0.80;;;;;;;16.29;74.78;99198.13;5049292;28;20082;-83
2023/09/22 00:38:10;;;;;;;6.23;0.90;;;;;;;16.30;74.60;99199.84;5048759;28;20039;-79
2023/09/22 00:40:36;;;;;;;9.20;1.25;;;;;;;16.30;74.86;99206.94;5049368;28;20032;-78
2023/09/22 00:43:05;;;;;;;4.70;0.63;;;;;;;16.29;74.30;99206.09;5049540;28;20044;-78
2023/09/22 00:45:31;;;;;;;5.22;0.82;;;;;;;16.30;74.45;99198.97;5049348;28;20035;-84
2023/09/22 00:47:56;;;;;;;6.13;0.80;;;;;;;16.31;74.68;99206.88;5050582;28;20025;-78
2023/09/22 00:50:22;;;;;;;8.00;0.90;;;;;;;16.30;74.53;99204.28;5051650;28;20097;-82
2023/09/22 00:52:47;;;;;;;6.27;0.77;;;;;;;16.30;74.67;99209.59;5049064;28;20520;-78
2023/09/22 00:55:13;;;;;;;7.93;1.10;;;;;;;16.28;74.48;99206.16;5049001;28;20219;-78
2023/09/22 00:57:39;;;;;;;13.53;1.37;;;;;;;16.24;74.94;99202.75;5048979;28;20492;-78
2023/09/22 01:00:06;;;;;;;5.60;0.70;;;;;;;16.23;74.66;99200.19;5049146;28;20112;-78
2023/09/22 01:02:32;;;;;;;7.55;0.80;;;;;;;16.21;74.59;99201.13;5048740;28;20037;-79
2023/09/22 01:04:57;;;;;;;5.50;0.97;;;;;;;16.25;74.52;99199.16;5048960;28;20079;-78
2023/09/22 01:07:22;;;;;;;12.17;1.10;;;;;;;16.26;74.75;99190.25;5048999;28;20041;-78
2023/09/22 01:09:48;;;;;;;8.43;1.03;;;;;;;16.28;74.85;99191.09;5049208;28;20052;-82
2023/09/22 01:12:13;;;;;;;7.63;0.90;;;;;;;16.30;74.52;99188.34;5030885;28;20272;-78
2023/09/22 01:14:39;;;;;;;7.17;1.13;;;;;;;16.28;74.61;99183.13;5050668;28;20074;-86
2023/09/22 01:17:04;;;;;;;5.97;0.77;;;;;;;16.26;74.87;99190.25;5068555;28;20043;-81
2023/09/22 01:19:30;;;;;;;7.20;0.97;;;;;;;16.24;74.55;99186.81;5068897;28;20036;-78
2023/09/22 01:21:55;;;;;;;7.55;1.00;;;;;;;16.25;74.64;99185.88;5068814;28;20048;-83
2023/09/22 01:24:20;;;;;;;6.87;1.20;;;;;;;16.24;74.61;99186.81;5069070;28;20033;-84
2023/09/22 01:26:46;;;;;;;6.37;0.73;;;;;;;16.23;74.83;99193.06;5050376;28;20493;-84
2023/09/22 01:29:11;;;;;;;7.37;1.00;;;;;;;16.24;74.73;99178.00;5051768;28;20040;-78
2023/09/22 01:31:37;;;;;;;8.10;1.00;;;;;;;16.23;74.72;99182.44;5052099;28;20090;-77
2023/09/22 01:34:03;;;;;;;9.73;1.50;;;;;;;16.23;74.66;99182.44;5052189;28;20029;-78
2023/09/22 01:36:29;;;;;;;7.22;1.05;;;;;;;16.20;74.62;99182.56;5052241;28;20032;-80
2023/09/22 01:38:55;;;;;;;10.50;1.10;;;;;;;16.19;74.88;99175.53;5052371;28;20029;-78
2023/09/22 01:41:20;;;;;;;7.40;0.90;;;;;;;16.19;74.17;99180.84;5052344;28;20025;-78
2023/09/22 01:43:46;;;;;;;7.87;0.90;;;;;;;16.19;74.65;99181.72;5052646;28;20441;-80
2023/09/22 01:46:11;;;;;;;11.10;1.40;;;;;;;16.17;74.57;99172.09;5056523;28;20114;-78
2023/09/22 01:48:36;;;;;;;10.10;1.17;;;;;;;16.16;74.71;99171.25;5051548;28;20057;-79
2023/09/22 01:51:02;;;;;;;7.67;1.10;;;;;;;16.13;74.69;99176.66;5052067;28;20044;-81
2023/09/22 01:53:28;;;;;;;9.33;1.10;;;;;;;16.09;74.63;99179.56;5052131;28;20053;-82
2023/09/22 01:55:54;;;;;;;10.00;1.52;;;;;;;16.07;74.48;99169.84;5052066;28;20021;-77
2023/09/22 01:58:20;;;;;;;9.45;1.00;;;;;;;16.07;74.57;99163.66;5052009;28;20116;-77
2023/09/22 02:00:45;;;;;;;8.60;1.20;;;;;;;16.05;74.45;99168.19;5052012;28;20029;-78
2023/09/22 02:03:10;;;;;;;7.70;1.20;;;;;;;16.05;74.28;99174.38;5051457;28;20029;-79
2023/09/22 02:05:36;;;;;;;7.30;1.10;;;;;;;16.04;74.36;99171.78;5051576;28;20040;-78
2023/09/22 02:08:01;;;;;;;12.07;1.50;;;;;;;16.01;74.20;99171.91;5051818;28;20037;-82
2023/09/22 02:10:26;;;;;;;12.43;1.20;;;;;;;15.94;74.43;99176.63;5051644;28;20090;-81
2023/09/22 02:12:52;;;;;;;11.17;1.40;;;;;;;15.92;74.46;99181.16;5056613;28;20423;-77
2023/09/22 02:15:17;;;;;;;8.02;1.25;;;;;;;15.92;74.37;99183.81;5071630;28;20024;-78
2023/09/22 02:17:44;;;;;;;7.30;0.90;;;;;;;15.91;74.45;99177.66;5071491;28;20092;-78
2023/09/22 02:20:21;;;;;;;10.40;1.00;;;;;;;15.94;74.20;99181.94;5071517;28;20059;-78
2023/09/22 02:22:53;;;;;;;9.20;0.93;;;;;;;15.90;74.48;99180.34;5071263;28;20016;-79
2023/09/22 02:25:19;;;;;;;12.77;1.23;;;;;;;15.87;74.30;99183.13;5064889;28;20040;-78
2023/09/22 02:27:45;;;;;;;10.27;0.85;;;;;;;15.86;74.10;99178.72;5051221;28;20055;-77
2023/09/22 02:30:11;;;;;;;7.68;0.70;;;;;;;15.82;74.20;99179.81;5051126;28;20265;-79
2023/09/22 02:32:38;;;;;;;9.00;1.00;;;;;;;15.75;73.94;99177.38;5050875;28;20307;-84
2023/09/22 02:35:04;;;;;;;8.43;0.90;;;;;;;15.70;74.07;99174.06;5051282;28;20559;-85
2023/09/22 02:37:30;;;;;;;8.13;0.75;;;;;;;15.66;74.12;99172.50;5033182;28;20116;-84
2023/09/22 02:39:55;;;;;;;7.63;0.90;;;;;;;15.66;74.04;99167.19;5050566;28;20150;-84
2023/09/22 02:42:20;;;;;;;9.70;0.80;;;;;;;15.64;73.82;99164.56;5055364;28;20021;-81
2023/09/22 02:44:46;;;;;;;7.22;0.88;;;;;;;15.65;73.77;99160.16;5051533;28;20484;-78
2023/09/22 02:47:14;;;;;;;7.30;0.77;;;;;;;15.66;73.75;99167.19;5050498;28;20029;-78
2023/09/22 02:49:43;;;;;;;6.93;0.55;;;;;;;15.69;73.52;99167.03;5051060;28;20101;-78
2023/09/22 02:52:08;;;;;;;8.73;0.93;;;;;;;15.69;73.76;99156.44;5051255;28;20025;-78
2023/09/22 02:54:34;;;;;;;8.02;1.00;;;;;;;15.69;73.48;99167.03;5050935;28;20033;-79
2023/09/22 02:57:00;;;;;;;7.37;1.03;;;;;;;15.67;73.26;99163.59;5050729;28;20055;-85
2023/09/22 02:59:26;;;;;;;8.25;1.00;;;;;;;15.66;73.50;99167.19;5051151;28;20074;-86
2023/09/22 03:01:52;;;;;;;9.43;1.40;;;;;;;15.63;73.46;99169.97;5050258;28;20440;-81
2023/09/22 03:04:17;;;;;;;8.55;1.00;;;;;;;15.60;73.32;99160.34;5050570;28;20028;-81
2023/09/22 03:06:42;;;;;;;7.93;1.20;;;;;;;15.59;73.50;99168.38;5050679;28;20413;-78
2023/09/22 03:09:09;;;;;;;10.13;1.10;;;;;;;15.56;73.50;99166.72;5051014;28;20519;-85
2023/09/22 03:11:35;;;;;;;8.38;1.00;;;;;;;15.56;73.40;99172.00;5050518;28;20109;-85
2023/09/22 03:14:00;;;;;;;7.18;0.77;;;;;;;15.55;73.39;99169.41;5065235;28;20514;-77
2023/09/22 03:16:29;;;;;;;7.70;0.80;;;;;;;15.54;73.54;99162.38;5052369;28;20035;-78
2023/09/22 03:18:54;;;;;;;7.35;0.73;;;;;;;15.57;73.48;99168.44;5069898;28;20029;-85
2023/09/22 03:21:22;;;;;;;12.13;1.00;;;;;;;15.57;73.30;99163.13;5070148;28;20493;-84
2023/09/22 03:23:52;;;;;;;10.38;1.08;;;;;;;15.56;73.41;99161.41;5051808;28;20025;-86
2023/09/22 03:26:18;;;;;;;9.68;1.33;;;;;;;15.57;73.23;99163.13;5055054;28;20408;-82
2023/09/22 03:28:46;;;;;;;9.27;0.80;;;;;;;15.55;73.14;99162.31;5050225;28;20407;-77
2023/09/22 03:31:12;;;;;;;7.40;0.90;;;;;;;15.52;72.96;99164.25;5049783;28;20128;-78
2023/09/22 03:33:41;;;;;;;10.57;1.05;;;;;;;15.50;72.99;99167.81;5049843;28;20167;-81
2023/09/22 03:36:12;;;;;;;7.72;0.90;;;;;;;15.51;72.99;99168.69;5050264;28;20524;-78
2023/09/22 03:38:39;;;;;;;11.70;0.90;;;;;;;15.50;72.77;99162.50;5051081;28;20036;-83
2023/09/22 03:41:05;;;;;;;13.15;1.20;;;;;;;15.52;72.93;99174.84;5069526;28;20661;-84
2023/09/22 03:43:31;;;;;;;5.37;0.70;;;;;;;15.49;73.32;99170.56;5069929;28;20271;-80
2023/09/22 03:45:56;;;;;;;11.43;0.82;;;;;;;15.49;72.90;99165.25;5070115;28;20024;-79
2023/09/22 03:48:22;;;;;;;7.73;1.07;;;;;;;15.49;73.19;99171.41;5069686;28;20650;-84
2023/09/22 03:50:48;;;;;;;5.95;0.60;;;;;;;15.47;73.23;99160.00;5069297;28;20175;-79
2023/09/22 03:53:13;;;;;;;7.03;1.27;;;;;;;15.47;72.92;99165.31;5070334;28;20223;-78
2023/09/22 03:55:39;;;;;;;10.90;1.47;;;;;;;15.44;73.24;99165.44;5069738;28;20530;-77
2023/09/22 03:58:05;;;;;;;6.55;0.88;;;;;;;15.42;73.20;99167.28;5069195;28;20492;-84
2023/09/22 04:00:31;;;;;;;6.20;0.83;;;;;;;15.43;73.15;99173.44;5069593;28;20035;-81
2023/09/22 04:02:56;;;;;;;9.23;1.10;;;;;;;15.42;73.18;99169.94;5069659;28;20274;-82
2023/09/22 04:05:22;;;;;;;7.57;0.88;;;;;;;15.40;73.28;99171.81;5069593;28;20020;-78
2023/09/22 04:07:48;;;;;;;6.60;0.70;;;;;;;15.42;73.11;99164.63;5069565;28;20100;-79
2023/09/22 04:10:15;;;;;;;7.27;0.90;;;;;;;15.41;73.53;99168.22;5069885;28;20029;-77
2023/09/22 04:12:40;;;;;;;11.05;1.15;;;;;;;15.38;73.34;99173.66;5065685;28;20029;-82
2023/09/22 04:15:08;;;;;;;7.60;1.00;;;;;;;15.37;73.36;99169.28;5049315;28;20036;-82
2023/09/22 04:17:34;;;;;;;8.02;0.80;;;;;;;15.37;73.48;99171.94;5049359;28;20033;-83
2023/09/22 04:20:00;;;;;;;7.60;1.00;;;;;;;15.38;73.27;99171.00;5049224;28;20051;-78
2023/09/22 04:22:28;;;;;;;5.63;0.75;;;;;;;15.35;73.26;99173.78;5049815;28;20481;-78
2023/09/22 04:25:00;;;;;;;10.05;0.90;;;;;;;15.35;73.34;99174.63;5052172;28;20478;-77
2023/09/22 04:27:32;;;;;;;8.30;0.87;;;;;;;15.32;73.30;99185.38;5051067;28;20028;-80
2023/09/22 04:30:07;;;;;;;9.02;1.55;;;;;;;15.29;73.17;99184.63;5049512;28;20024;-78
2023/09/22 04:32:33;;;;;;;7.88;1.27;;;;;;;15.26;73.35;99190.06;5048591;28;20075;-81
2023/09/22 04:35:00;;;;;;;6.35;0.60;;;;;;;15.29;73.45;99184.63;5053450;28;20025;-78
2023/09/22 04:37:25;;;;;;;9.50;0.82;;;;;;;15.28;73.44;99183.78;5048979;28;20389;-77
2023/09/22 04:39:52;;;;;;;6.03;0.73;;;;;;;15.28;73.19;99191.75;5049410;28;20040;-83
2023/09/22 04:42:19;;;;;;;7.72;0.90;;;;;;;15.25;73.29;99189.22;5049473;28;20110;-79
2023/09/22 04:44:45;;;;;;;7.87;1.10;;;;;;;15.23;73.26;99184.88;5049682;28;20066;-77
2023/09/22 04:47:10;;;;;;;8.27;0.83;;;;;;;15.17;73.45;99186.88;5049120;28;20029;-85
2023/09/22 04:49:36;;;;;;;5.75;1.10;;;;;;;15.18;73.44;99177.09;5049039;28;20025;-79
2023/09/22 04:52:02;;;;;;;9.77;1.00;;;;;;;15.19;73.37;99185.00;5049089;28;20485;-79
2023/09/22 04:54:29;;;;;;;6.55;0.88;;;;;;;15.24;73.47;99189.25;5048923;28;20040;-77
2023/09/22 04:56:55;;;;;;;8.40;1.02;;;;;;;15.28;73.49;99193.50;5049012;28;20029;-79
2023/09/22 04:59:20;;;;;;;11.40;0.97;;;;;;;15.30;73.45;99196.97;5048874;28;20390;-86
2023/09/22 05:01:46;;;;;;;8.20;0.70;;;;;;;15.34;73.37;99201.25;5049593;28;20025;-78
2023/09/22 05:04:11;;;;;;;6.73;0.90;;;;;;;15.36;73.15;99202.03;5053128;28;20491;-81
2023/09/22 05:06:36;;;;;;;10.93;1.77;;;;;;;15.34;73.41;99203.91;5052727;28;20453;-81
2023/09/22 05:09:03;;;;;;;8.18;1.10;;;;;;;15.32;73.27;99203.09;5052800;28;20036;-77
2023/09/22 05:11:28;;;;;;;8.00;0.85;;;;;;;15.31;73.36;99209.28;5053023;28;20074;-78
2023/09/22 05:13:54;;;;;;;13.63;0.93;;;;;;;15.30;73.46;99207.56;5066820;28;20024;-77
2023/09/22 05:16:20;;;;;;;7.83;1.00;;;;;;;15.29;73.46;99216.44;5054317;28;20033;-78
2023/09/22 05:18:45;;;;;;;8.88;0.70;;;;;;;15.27;73.33;99213.00;5052413;28;20033;-78
2023/09/22 05:21:11;;;;;;;10.93;1.20;;;;;;;15.27;73.24;99218.31;5052702;28;20048;-78
2023/09/22 05:23:36;;;;;;;8.40;0.90;;;;;;;15.23;73.40;99216.72;5052586;28;20044;-82
2023/09/22 05:26:09;;;;;;;7.40;1.00;;;;;;;15.23;73.28;99216.72;5052236;28;20053;-84
2023/09/22 05:28:34;;;;;;;5.83;0.80;;;;;;;15.21;73.35;99219.44;5052632;28;20037;-78
2023/09/22 05:31:00;;;;;;;6.75;0.90;;;;;;;15.18;73.38;99209.81;5056652;28;20059;-77
2023/09/22 05:33:26;;;;;;;8.37;1.10;;;;;;;15.17;73.14;99207.19;5051925;28;20036;-85
2023/09/22 05:35:51;;;;;;;8.93;0.93;;;;;;;15.10;73.15;99205.72;5051997;28;20283;-82
2023/09/22 05:38:17;;;;;;;8.70;1.10;;;;;;;15.06;73.24;99211.16;5051481;28;20037;-78
2023/09/22 05:40:45;;;;;;;5.70;0.60;;;;;;;15.03;73.19;99221.88;5051794;28;20025;-77
2023/09/22 05:43:13;;;;;;;6.15;1.00;;;;;;;15.02;73.38;99219.28;5052444;28;20064;-85
2023/09/22 05:45:39;;;;;;;6.70;0.67;;;;;;;15.00;73.44;99229.09;5052429;28;20021;-85
2023/09/22 05:48:05;;;;;;;9.30;1.08;;;;;;;15.00;73.42;99231.75;5051814;28;20014;-79
2023/09/22 05:50:30;;;;;;;9.23;1.17;;;;;;;14.98;73.44;99225.63;5051937;28;20040;-82
2023/09/22 05:52:56;;;;;;;10.77;1.25;;;;;;;14.96;73.50;99235.44;5034084;28;20041;-77
2023/09/22 05:55:22;;;;;;;7.87;0.90;;;;;;;14.91;73.44;99223.22;5052288;28;20033;-76
2023/09/22 05:57:48;;;;;;;6.55;0.88;;;;;;;14.88;73.34;99231.31;5051950;28;20031;-84
2023/09/22 06:00:17;;;;;;;12.83;1.30;;;;;;;14.85;73.79;99234.09;5052030;28;20104;-83
2023/09/22 06:02:47;;;;;;;11.70;0.98;;;;;;;14.86;73.25;99241.09;5053420;28;20029;-81
2023/09/22 06:05:14;;;;;;;8.43;0.85;;;;;;;14.89;73.58;99238.34;5058182;28;20029;-81
2023/09/22 06:07:40;;;;;;;11.63;1.38;;;;;;;14.90;73.38;99245.38;5052911;28;20159;-81
2023/09/22 06:10:06;;;;;;;8.33;1.10;;;;;;;14.91;73.31;99240.91;5052036;28;20459;-78
2023/09/22 06:12:31;;;;;;;10.82;1.27;;;;;;;14.89;73.56;99246.28;5053880;28;20029;-84
2023/09/22 06:14:59;;;;;;;8.13;0.93;;;;;;;14.89;73.48;99246.28;5071138;28;20028;-81
2023/09/22 06:17:25;;;;;;;6.70;0.98;;;;;;;14.91;73.56;99264.75;5071825;28;20043;-82
2023/09/22 06:19:51;;;;;;;9.77;1.25;;;;;;;15.05;72.79;99256.28;5054734;28;20029;-82
2023/09/22 06:22:17;;;;;;;11.00;1.20;;;;;;;15.09;72.80;99257.03;5054072;28;20652;-79
2023/09/22 06:24:42;;;;;;;9.07;0.90;;;;;;;15.22;72.60;99258.28;5060557;28;20087;-79
2023/09/22 06:27:07;;;;;;;11.47;1.27;;;;;;;15.35;71.98;99269.28;5058963;28;20028;-79
2023/09/22 06:29:33;;;;;;;9.20;1.40;;;;;;;15.31;72.05;99263.22;5071241;28;20027;-79
2023/09/22 06:31:58;;;;;;;11.43;1.60;;;;;;;15.24;72.23;99264.41;5070601;28;20408;-85
2023/09/22 06:34:24;;;;;;;9.73;1.63;;;;;;;15.16;72.83;99269.13;5071097;28;20493;-79
2023/09/22 06:36:49;;;;;;;12.23;1.50;;;;;;;15.07;73.18;99270.34;5070751;28;20354;-80
2023/09/22 06:39:14;;;;;;;12.40;1.23;;;;;;;15.05;73.43;99270.41;5070506;28;20024;-81
2023/09/22 06:41:40;;;;;;;10.17;1.30;;;;;;;15.05;73.59;99266.88;5060508;28;20139;-85
2023/09/22 06:44:06;;;;;;;7.70;1.30;;;;;;;15.02;73.66;99267.88;5050333;28;20032;-78
2023/09/22 06:46:35;;;;;;;9.60;1.30;;;;;;;14.97;73.52;99269.84;5048747;28;20388;-81
2023/09/22 06:49:07;;;;;;;7.63;1.10;;;;;;;14.96;73.98;99277.84;5050017;28;20036;-78
2023/09/22 06:51:33;;;;;;;8.45;1.30;;;;;;;14.93;73.92;99278.81;5050354;28;20052;-80
2023/09/22 06:53:59;;;;;;;7.37;1.13;;;;;;;14.95;73.93;99292.03;5050775;28;20029;-83
2023/09/22 06:56:25;;;;;;;9.13;0.90;;;;;;;14.96;73.90;99299.94;5050774;28;20067;-83
2023/09/22 06:58:53;;;;;;;11.97;1.67;;;;;;;15.12;73.62;99304.66;5050241;28;20170;-78
2023/09/22 07:01:19;;;;;;;13.17;0.90;;;;;;;15.21;73.63;99310.47;5049997;28;20264;-81
2023/09/22 07:03:45;;;;;;;6.80;0.97;;;;;;;15.23;73.30;99301.56;5048753;28;20389;-80
2023/09/22 07:06:14;;;;;;;6.40;1.00;;;;;;;15.26;73.36;99302.34;5049173;28;20278;-78
2023/09/22 07:08:40;;;;;;;9.13;1.20;;;;;;;15.44;72.81;99295.44;5049454;28;20037;-85
2023/09/22 07:11:08;;;;;;;8.68;1.00;;;;;;;15.66;71.98;99299.88;5050306;28;20136;-78
2023/09/22 07:13:34;;;;;;;8.85;0.98;;;;;;;15.83;71.78;99299.19;5059979;28;20066;-83
2023/09/22 07:15:59;;;;;;;8.47;0.70;;;;;;;16.01;71.43;99300.22;5052112;28;20029;-84
2023/09/22 07:18:25;;;;;;;7.82;1.00;;;;;;;16.21;71.21;99296.75;5050228;28;20623;-86
2023/09/22 07:20:52;;;;;;;5.22;0.77;;;;;;;16.28;70.78;99302.66;5051383;28;20432;-86
2023/09/22 07:23:19;;;;;;;7.13;0.88;;;;;;;16.34;70.69;99306.81;5054868;28;20024;-80
2023/09/22 07:25:44;;;;;;;5.73;0.80;;;;;;;16.46;70.14;99310.72;5054597;28;20025;-84
2023/09/22 07:28:11;;;;;;;6.75;1.08;;;;;;;16.56;69.78;99312.06;5050649;28;20382;-83
2023/09/22 07:30:36;;;;;;;6.87;1.00;;;;;;;16.67;69.67;99314.25;5050464;28;20099;-85
2023/09/22 07:33:02;;;;;;;6.90;0.70;;;;;;;16.83;69.43;99308.22;5051844;28;20033;-78
2023/09/22 07:35:27;;;;;;;6.17;1.40;;;;;;;16.91;68.46;99312.25;5050064;28;20033;-85
2023/09/22 07:37:53;;;;;;;7.30;0.90;;;;;;;17.03;67.87;99315.34;5050166;28;20472;-83
2023/09/22 07:40:18;;;;;;;6.20;0.70;;;;;;;17.13;67.75;99313.97;5050328;28;20029;-83
2023/09/22 07:42:44;;;;;;;8.43;0.95;;;;;;;17.12;67.78;99325.53;5050062;28;20037;-84
2023/09/22 07:45:11;;;;;;;8.13;1.20;;;;;;;17.16;68.34;99326.28;5049747;28;20032;-78
2023/09/22 07:47:38;;;;;;;9.45;0.70;;;;;;;17.24;68.13;99332.09;5049934;28;20485;-83
2023/09/22 07:50:05;;;;;;;8.20;0.90;;;;;;;17.30;67.94;99333.59;5050323;28;20024;-83
2023/09/22 07:52:31;;;;;;;6.50;0.90;;;;;;;17.31;67.32;99335.34;5049834;28;20473;-78
2023/09/22 07:54:57;;;;;;;5.83;0.73;;;;;;;17.33;67.58;99350.28;5051449;28;20108;-84
2023/09/22 07:57:23;;;;;;;8.00;0.93;;;;;;;17.34;67.84;99343.16;5049859;28;20070;-82
2023/09/22 07:59:48;;;;;;;10.17;1.00;;;;;;;17.37;67.79;99345.69;5049877;28;20478;-81
2023/09/22 08:02:17;;;;;;;5.80;0.60;;;;;;;17.42;67.64;99343.66;5049549;28;20216;-78
2023/09/22 08:04:43;;;;;;;9.23;0.87;;;;;;;17.53;67.45;99345.81;5049618;28;20037;-85
2023/09/22 08:07:08;;;;;;;7.20;0.60;;;;;;;17.76;67.00;99352.72;5049878;28;20534;-77
2023/09/22 08:09:33;;;;;;;5.43;0.60;;;;;;;17.92;66.58;99349.28;5049947;28;20052;-82
2023/09/22 08:11:59;;;;;;;8.87;0.90;;;;;;;18.03;66.55;99354.09;5049600;28;20398;-79
2023/09/22 08:14:25;;;;;;;9.50;1.03;;;;;;;18.06;65.96;99349.50;5067890;28;20263;-84
2023/09/22 08:16:50;;;;;;;9.90;1.53;;;;;;;18.06;65.23;99349.50;5069956;28;20032;-86
2023/09/22 08:19:16;;;;;;;7.43;1.30;;;;;;;18.06;65.39;99351.28;5060598;28;20476;-86
2023/09/22 08:21:41;;;;;;;5.63;0.73;;;;;;;18.05;64.85;99363.75;5049587;28;20064;-80
2023/09/22 08:24:07;;;;;;;10.80;1.13;;;;;;;18.04;64.57;99354.03;5049887;28;20039;-79
2023/09/22 08:26:33;;;;;;;7.30;1.08;;;;;;;18.11;64.94;99367.03;5054271;28;20475;-83
2023/09/22 08:29:00;;;;;;;7.95;0.90;;;;;;;18.14;65.14;99374.88;5049383;28;20036;-85
2023/09/22 08:31:26;;;;;;;6.75;1.17;;;;;;;18.15;64.76;99374.81;5049378;28;20045;-83
2023/09/22 08:33:52;;;;;;;9.73;1.33;;;;;;;18.19;64.54;99370.19;5049742;28;20041;-86
2023/09/22 08:36:18;;;;;;;5.17;0.70;;;;;;;18.28;62.93;99380.41;5049746;28;20178;-78
2023/09/22 08:38:44;;;;;;;6.25;0.80;;;;;;;18.38;62.13;99385.25;5051260;28;20111;-84
2023/09/22 08:41:09;;;;;;;4.57;0.70;;;;;;;18.47;60.32;99376.81;5049416;28;20481;-83
2023/09/22 08:43:35;;;;;;;6.13;0.90;;;;;;;18.64;60.04;99371.44;5031210;28;20029;-79
2023/09/22 08:46:01;;;;;;;6.63;1.00;;;;;;;18.85;58.96;99376.59;5049240;28;20497;-80
2023/09/22 08:48:27;;;;;;;9.88;1.20;;;;;;;19.01;59.64;99389.16;5048793;28;20067;-79
2023/09/22 08:50:54;;;;;;;7.18;1.08;;;;;;;19.10;59.32;99385.13;5049712;28;20112;-79
2023/09/22 08:53:20;;;;;;;7.13;0.93;;;;;;;19.10;58.60;99383.31;5049014;28;20047;-82
2023/09/22 08:55:49;;;;;;;4.83;0.63;;;;;;;19.03;58.69;99398.78;5049706;28;20496;-85
2023/09/22 08:58:15;;;;;;;8.40;1.13;;;;;;;18.91;58.88;99394.09;5049752;28;20100;-78
2023/09/22 09:00:40;;;;;;;6.03;0.70;;;;;;;18.85;58.85;99397.09;5051501;28;20077;-82
2023/09/22 09:03:09;;;;;;;9.13;1.10;;;;;;;18.84;58.80;99398.88;5048742;28;20274;-79
2023/09/22 09:05:38;;;;;;;9.00;1.10;;;;;;;18.89;59.21;99396.81;5049227;28;20439;-79
2023/09/22 09:08:23;;;;;;;9.60;1.10;;;;;;;18.88;58.59;99407.59;5049481;28;20400;-80
2023/09/22 09:10:49;;;;;;;8.40;1.27;;;;;;;18.88;58.87;99407.59;5048838;28;20033;-78
2023/09/22 09:13:16;;;;;;;6.00;1.20;;;;;;;18.85;58.16;99415.75;5057193;28;20496;-85
2023/09/22 09:15:45;;;;;;;8.18;0.73;;;;;;;18.84;58.50;99430.88;5059305;28;20045;-78
2023/09/22 09:18:12;;;;;;;6.93;0.70;;;;;;;18.81;57.86;99436.38;5048605;28;20032;-78
2023/09/22 09:20:40;;;;;;;5.30;0.90;;;;;;;18.68;56.36;99444.16;5049669;28;20091;-84
2023/09/22 09:23:13;;;;;;;5.70;0.80;;;;;;;18.47;57.49;99443.44;5050175;28;20029;-82
2023/09/22 09:25:41;;;;;;;6.85;0.73;;;;;;;18.34;58.34;99457.38;5053922;28;20121;-86
2023/09/22 09:28:08;;;;;;;5.70;0.90;;;;;;;18.27;58.53;99453.28;5048723;28;20405;-78
2023/09/22 09:30:33;;;;;;;4.03;0.70;;;;;;;18.27;58.87;99461.28;5051020;28;20034;-79
2023/09/22 09:33:09;;;;;;;5.07;0.80;;;;;;;18.23;58.78;99462.38;5048517;28;20496;-82
2023/09/22 09:35:35;;;;;;;6.88;0.52;;;;;;;18.24;59.34;99458.78;5048696;28;20047;-83
2023/09/22 09:38:08;;;;;;;5.03;0.73;;;;;;;18.28;59.46;99454.13;5049312;28;20451;-79
2023/09/22 09:40:37;;;;;;;6.37;0.90;;;;;;;18.25;58.94;99457.84;5051325;28;20017;-87
2023/09/22 09:43:07;;;;;;;5.05;0.60;;;;;;;18.26;58.67;99467.56;5051109;28;20020;-84
2023/09/22 09:45:34;;;;;;;6.90;0.88;;;;;;;18.21;57.85;99466.91;5030762;28;20508;-78
2023/09/22 09:48:03;;;;;;;5.25;0.80;;;;;;;18.22;57.57;99474.81;5048318;28;20153;-85
2023/09/22 09:50:33;;;;;;;6.90;0.73;;;;;;;18.21;57.09;99474.91;5051958;28;20060;-81
2023/09/22 09:53:06;;;;;;;6.30;0.83;;;;;;;18.26;57.34;99482.66;5052687;28;20017;-79
2023/09/22 09:55:35;;;;;;;6.00;1.13;;;;;;;18.27;57.70;99469.28;5051907;28;20035;-79
2023/09/22 09:58:02;;;;;;;5.57;0.80;;;;;;;18.31;58.42;99480.63;5052200;28;20040;-88
2023/09/22 10:00:28;;;;;;;7.15;0.85;;;;;;;18.33;58.53;99481.44;5052313;28;20027;-85
2023/09/22 10:02:58;;;;;;;5.72;0.70;;;;;;;18.31;58.80;99476.19;5052403;28;20013;-79
2023/09/22 10:05:24;;;;;;;7.97;0.70;;;;;;;18.34;58.95;99469.84;5054193;28;20036;-77
2023/09/22 10:07:56;;;;;;;6.70;0.80;;;;;;;18.31;59.35;99476.19;5052313;28;20017;-86
2023/09/22 10:10:22;;;;;;;6.05;0.77;;;;;;;18.28;60.24;99475.47;5052180;28;20029;-78
2023/09/22 10:12:48;;;;;;;6.25;0.82;;;;;;;18.29;60.96;99479.84;5059453;28;20546;-84
2023/09/22 10:15:15;;;;;;;5.43;0.77;;;;;;;18.29;61.28;99475.41;5063568;28;20412;-81
2023/09/22 10:17:40;;;;;;;6.67;0.77;;;;;;;18.25;60.98;99483.59;5060851;28;20092;-81
2023/09/22 10:20:11;;;;;;;6.93;0.75;;;;;;;18.23;60.99;99483.69;5057625;28;20048;-89
2023/09/22 10:22:41;;;;;;;7.40;0.80;;;;;;;18.24;60.98;99472.09;5062190;28;20039;-92
2023/09/22 10:25:12;;;;;;;4.65;0.77;;;;;;;18.26;60.67;99478.22;5063816;28;20104;-91
2023/09/22 10:27:54;;;;;;;6.83;0.90;;;;;;;18.29;60.06;99477.19;5055742;28;20497;-80
2023/09/22 10:30:20;;;;;;;6.97;0.90;;;;;;;18.34;59.93;99476.03;5060378;28;20036;-79
2023/09/22 10:32:46;;;;;;;4.38;0.60;;;;;;;18.49;60.01;99478.88;5061258;28;20381;-85
2023/09/22 10:35:12;;;;;;;10.30;0.87;;;;;;;18.67;59.92;99476.22;5062234;28;20319;-79
2023/09/22 10:38:00;;;;;;;3.90;0.60;;;;;;;18.81;59.01;99473.72;5057634;28;20037;-80
2023/09/22 10:40:25;;;;;;;5.32;0.88;;;;;;;18.96;59.37;99469.41;5050938;28;20124;-79
2023/09/22 10:42:51;;;;;;;4.33;0.70;;;;;;;19.16;58.62;99471.03;5056975;28;20178;-78
2023/09/22 10:45:21;;;;;;;7.53;0.77;;;;;;;19.37;58.25;99462.84;5061362;28;20151;-78
2023/09/22 10:47:47;;;;;;;5.13;0.65;;;;;;;19.59;57.82;99464.34;5062018;28;20036;-80
2023/09/22 10:50:19;;;;;;;4.93;0.60;;;;;;;19.70;56.79;99466.44;5061952;28;20056;-78
2023/09/22 10:52:52;;;;;;;4.40;0.52;;;;;;;19.71;55.42;99462.81;5059597;28;20061;-78
2023/09/22 10:55:27;;;;;;;5.25;0.82;;;;;;;19.74;55.74;99458.19;5060806;28;20223;-78
2023/09/22 10:57:55;;;;;;;4.50;0.50;;;;;;;19.79;55.43;99458.78;5059634;28;20025;-79
2023/09/22 11:00:22;;;;;;;5.72;0.60;;;;;;;19.83;54.18;99456.81;5058651;28;20028;-78
2023/09/22 11:02:47;;;;;;;4.93;0.67;;;;;;;19.88;53.56;99453.88;5061365;28;20559;-78
2023/09/22 11:05:14;;;;;;;5.45;0.90;;;;;;;20.02;53.61;99453.16;5059225;28;20155;-77
2023/09/22 11:07:43;;;;;;;5.32;0.68;;;;;;;20.27;53.97;99465.13;5061289;28;20048;-80
2023/09/22 11:10:17;;;;;;;6.25;1.08;;;;;;;20.52;53.66;99459.19;5059818;28;20032;-80
2023/09/22 11:12:47;;;;;;;4.97;0.77;;;;;;;20.64;53.13;99469.19;5054674;28;20096;-79
2023/09/22 11:15:13;;;;;;;6.35;0.70;;;;;;;20.51;52.63;99460.16;5070982;28;20025;-80
2023/09/22 11:17:41;;;;;;;7.63;0.67;;;;;;;20.32;52.48;99458.53;5070308;28;20036;-82
2023/09/22 11:20:12;;;;;;;6.35;0.98;;;;;;;20.16;52.77;99468.41;5062896;28;20498;-78
2023/09/22 11:22:42;;;;;;;5.95;0.68;;;;;;;20.02;53.63;99464.69;5058137;28;20047;-77
2023/09/22 11:25:11;;;;;;;4.72;0.50;;;;;;;20.01;54.03;99464.75;5056681;28;20052;-77
2023/09/22 11:27:50;;;;;;;7.22;1.08;;;;;;;20.03;54.01;99473.59;5062914;28;20056;-78
2023/09/22 11:30:19;;;;;;;5.93;0.70;;;;;;;20.07;53.41;99470.63;5043368;28;20048;-78